sensor_id;sensor_type;location;lat;lon;timestamp;pressure;altitude;pressure_sealevel;temperature;humidity
71145;BME280;58812;47.698;17.726;2023-02-12T00:01:01;101722.22;;;3.83;84.78
71145;BME280;58812;47.698;17.726;2023-02-12T00:03:27;101728.97;;;3.90;84.74
71145;BME280;58812;47.698;17.726;2023-02-12T00:05:52;101722.03;;;3.88;85.11
71145;BME280;58812;47.698;17.726;2023-02-12T00:08:17;101724.59;;;3.89;84.93
71145;BME280;58812;47.698;17.726;2023-02-12T00:10:43;101719.47;;;3.86;85.30
71145;BME280;58812;47.698;17.726;2023-02-12T00:13:10;101726.66;;;3.83;85.44
71145;BME280;58812;47.698;17.726;2023-02-12T00:15:39;101730.72;;;3.91;85.87
71145;BME280;58812;47.698;17.726;2023-02-12T00:18:05;101734.22;;;3.92;86.11
71145;BME280;58812;47.698;17.726;2023-02-12T00:20:30;101739.44;;;3.93;86.12
71145;BME280;58812;47.698;17.726;2023-02-12T00:22:56;101744.56;;;3.98;86.36
71145;BME280;58812;47.698;17.726;2023-02-12T00:25:21;101743.03;;;3.92;86.38
71145;BME280;58812;47.698;17.726;2023-02-12T00:27:47;101738.41;;;3.97;86.75
71145;BME280;58812;47.698;17.726;2023-02-12T00:30:12;101734.66;;;4.01;86.75
71145;BME280;58812;47.698;17.726;2023-02-12T00:32:37;101738.13;;;4.04;87.29
71145;BME280;58812;47.698;17.726;2023-02-12T00:35:03;101728.78;;;3.95;87.54
71145;BME280;58812;47.698;17.726;2023-02-12T00:37:28;101742.22;;;3.90;88.00
71145;BME280;58812;47.698;17.726;2023-02-12T00:39:54;101736.03;;;3.91;88.07
71145;BME280;58812;47.698;17.726;2023-02-12T00:42:19;101742.59;;;4.01;87.73
71145;BME280;58812;47.698;17.726;2023-02-12T00:44:45;101745.69;;;3.92;88.41
71145;BME280;58812;47.698;17.726;2023-02-12T00:47:10;101740.09;;;3.98;88.51
71145;BME280;58812;47.698;17.726;2023-02-12T00:49:35;101748.84;;;4.00;88.22
71145;BME280;58812;47.698;17.726;2023-02-12T00:52:02;101750.72;;;3.98;88.58
71145;BME280;58812;47.698;17.726;2023-02-12T00:54:29;101747.91;;;4.01;88.82
71145;BME280;58812;47.698;17.726;2023-02-12T00:56:54;101747.12;;;3.99;88.94
71145;BME280;58812;47.698;17.726;2023-02-12T00:59:21;101749.97;;;3.95;89.02
71145;BME280;58812;47.698;17.726;2023-02-12T01:01:47;101744.69;;;3.95;89.70
71145;BME280;58812;47.698;17.726;2023-02-12T01:04:12;101737.66;;;3.94;89.73
71145;BME280;58812;47.698;17.726;2023-02-12T01:06:37;101735.78;;;3.96;89.97
71145;BME280;58812;47.698;17.726;2023-02-12T01:09:03;101738.50;;;3.94;89.89
71145;BME280;58812;47.698;17.726;2023-02-12T01:11:28;101740.66;;;3.86;90.22
71145;BME280;58812;47.698;17.726;2023-02-12T01:13:54;101740.38;;;3.92;90.21
71145;BME280;58812;47.698;17.726;2023-02-12T01:16:22;101738.91;;;3.85;90.46
71145;BME280;58812;47.698;17.726;2023-02-12T01:18:48;101729.47;;;3.80;90.78
71145;BME280;58812;47.698;17.726;2023-02-12T01:21:17;101735.81;;;3.75;91.19
71145;BME280;58812;47.698;17.726;2023-02-12T01:23:43;101734.16;;;3.73;91.30
71145;BME280;58812;47.698;17.726;2023-02-12T01:26:10;101733.25;;;3.74;91.59
71145;BME280;58812;47.698;17.726;2023-02-12T01:28:40;101733.38;;;3.71;91.59
71145;BME280;58812;47.698;17.726;2023-02-12T01:31:12;101726.75;;;3.81;92.11
71145;BME280;58812;47.698;17.726;2023-02-12T01:33:38;101742.06;;;3.74;92.14
71145;BME280;58812;47.698;17.726;2023-02-12T01:36:06;101738.53;;;3.74;92.38
71145;BME280;58812;47.698;17.726;2023-02-12T01:38:33;101745.75;;;3.70;92.58
71145;BME280;58812;47.698;17.726;2023-02-12T01:41:11;101741.97;;;3.76;92.60
71145;BME280;58812;47.698;17.726;2023-02-12T01:43:37;101749.19;;;3.72;92.54
71145;BME280;58812;47.698;17.726;2023-02-12T01:46:04;101745.87;;;3.67;93.13
71145;BME280;58812;47.698;17.726;2023-02-12T01:48:42;101744.63;;;3.76;93.48
71145;BME280;58812;47.698;17.726;2023-02-12T01:51:12;101750.31;;;3.67;93.81
71145;BME280;58812;47.698;17.726;2023-02-12T01:53:42;101752.16;;;3.65;94.46
71145;BME280;58812;47.698;17.726;2023-02-12T01:56:09;101746.88;;;3.65;94.69
71145;BME280;58812;47.698;17.726;2023-02-12T01:58:38;101746.47;;;3.54;95.18
71145;BME280;58812;47.698;17.726;2023-02-12T02:01:07;101750.91;;;3.53;95.65
71145;BME280;58812;47.698;17.726;2023-02-12T02:03:35;101742.47;;;3.43;96.03
71145;BME280;58812;47.698;17.726;2023-02-12T02:06:07;101752.22;;;3.43;96.33
71145;BME280;58812;47.698;17.726;2023-02-12T02:08:34;101756.53;;;3.45;96.69
71145;BME280;58812;47.698;17.726;2023-02-12T02:11:00;101754.94;;;3.41;96.82
71145;BME280;58812;47.698;17.726;2023-02-12T02:13:26;101760.28;;;3.40;97.46
71145;BME280;58812;47.698;17.726;2023-02-12T02:16:20;101756.81;;;3.38;97.71
71145;BME280;58812;47.698;17.726;2023-02-12T02:18:58;101758.63;;;3.37;97.78
71145;BME280;58812;47.698;17.726;2023-02-12T02:35:11;101778.00;;;3.80;99.85
71145;BME280;58812;47.698;17.726;2023-02-12T02:37:52;101758.38;;;3.84;99.98
71145;BME280;58812;47.698;17.726;2023-02-12T02:40:23;101766.41;;;3.83;100.00
71145;BME280;58812;47.698;17.726;2023-02-12T02:43:10;101776.63;;;3.92;99.49
71145;BME280;58812;47.698;17.726;2023-02-12T02:45:42;101778.41;;;3.91;99.85
71145;BME280;58812;47.698;17.726;2023-02-12T02:48:34;101783.03;;;3.86;100.00
71145;BME280;58812;47.698;17.726;2023-02-12T02:51:05;101784.41;;;3.95;99.87
71145;BME280;58812;47.698;17.726;2023-02-12T02:53:41;101788.19;;;3.89;100.00
71145;BME280;58812;47.698;17.726;2023-02-12T02:56:12;101779.56;;;3.84;100.00
71145;BME280;58812;47.698;17.726;2023-02-12T02:58:43;101784.75;;;3.87;100.00
71145;BME280;58812;47.698;17.726;2023-02-12T03:01:15;101784.09;;;3.82;100.00
71145;BME280;58812;47.698;17.726;2023-02-12T03:08:53;101790.97;;;3.66;100.00
71145;BME280;58812;47.698;17.726;2023-02-12T03:11:29;101789.25;;;3.65;100.00
71145;BME280;58812;47.698;17.726;2023-02-12T03:14:00;101794.44;;;3.68;100.00
71145;BME280;58812;47.698;17.726;2023-02-12T03:16:30;101796.00;;;3.72;100.00
71145;BME280;58812;47.698;17.726;2023-02-12T03:19:05;101787.38;;;3.67;100.00
71145;BME280;58812;47.698;17.726;2023-02-12T03:21:42;101794.44;;;3.68;100.00
71145;BME280;58812;47.698;17.726;2023-02-12T03:24:18;101798.72;;;3.70;100.00
71145;BME280;58812;47.698;17.726;2023-02-12T03:26:50;101798.72;;;3.70;100.00
71145;BME280;58812;47.698;17.726;2023-02-12T03:29:17;101802.91;;;3.76;100.00
71145;BME280;58812;47.698;17.726;2023-02-12T03:35:13;101804.50;;;3.80;100.00
71145;BME280;58812;47.698;17.726;2023-02-12T03:37:49;101799.47;;;3.74;100.00
71145;BME280;58812;47.698;17.726;2023-02-12T03:40:38;101815.41;;;3.72;100.00
71145;BME280;58812;47.698;17.726;2023-02-12T03:43:09;101816.94;;;3.78;100.00
71145;BME280;58812;47.698;17.726;2023-02-12T03:45:44;101824.09;;;3.76;100.00
71145;BME280;58812;47.698;17.726;2023-02-12T03:48:36;101832.09;;;3.74;100.00
71145;BME280;58812;47.698;17.726;2023-02-12T03:51:21;101839.56;;;3.85;100.00
71145;BME280;58812;47.698;17.726;2023-02-12T03:53:49;101847.53;;;3.85;100.00
71145;BME280;58812;47.698;17.726;2023-02-12T03:56:54;101853.38;;;3.93;100.00
71145;BME280;58812;47.698;17.726;2023-02-12T03:59:23;101855.34;;;3.88;100.00
71145;BME280;58812;47.698;17.726;2023-02-12T04:01:51;101857.25;;;3.85;100.00
71145;BME280;58812;47.698;17.726;2023-02-12T04:04:18;101860.53;;;3.91;100.00
71145;BME280;58812;47.698;17.726;2023-02-12T04:06:46;101862.25;;;3.92;100.00
71145;BME280;58812;47.698;17.726;2023-02-12T04:09:13;101861.41;;;3.92;100.00
71145;BME280;58812;47.698;17.726;2023-02-12T04:14:54;101858.19;;;3.84;100.00
71145;BME280;58812;47.698;17.726;2023-02-12T04:25:56;101858.25;;;3.82;100.00
71145;BME280;58812;47.698;17.726;2023-02-12T04:31:33;101856.63;;;3.80;100.00
71145;BME280;58812;47.698;17.726;2023-02-12T04:34:18;101851.44;;;3.77;100.00
71145;BME280;58812;47.698;17.726;2023-02-12T04:36:55;101842.63;;;3.76;100.00
71145;BME280;58812;47.698;17.726;2023-02-12T04:39:24;101843.31;;;3.81;100.00
71145;BME280;58812;47.698;17.726;2023-02-12T04:41:51;101847.22;;;3.93;100.00
71145;BME280;58812;47.698;17.726;2023-02-12T04:44:22;101853.75;;;3.84;100.00
71145;BME280;58812;47.698;17.726;2023-02-12T04:46:48;101855.34;;;3.88;100.00
71145;BME280;58812;47.698;17.726;2023-02-12T04:49:16;101857.75;;;3.94;100.00
71145;BME280;58812;47.698;17.726;2023-02-12T04:51:42;101867.94;;;3.83;100.00
71145;BME280;58812;47.698;17.726;2023-02-12T04:54:08;101870.91;;;3.75;100.00
71145;BME280;58812;47.698;17.726;2023-02-12T04:56:34;101875.19;;;3.78;100.00
71145;BME280;58812;47.698;17.726;2023-02-12T04:58:59;101883.03;;;3.81;100.00
71145;BME280;58812;47.698;17.726;2023-02-12T05:01:25;101899.91;;;3.79;100.00
71145;BME280;58812;47.698;17.726;2023-02-12T05:03:51;101896.28;;;3.81;100.00
71145;BME280;58812;47.698;17.726;2023-02-12T05:06:17;101909.53;;;3.81;100.00
71145;BME280;58812;47.698;17.726;2023-02-12T05:08:43;101923.50;;;3.85;100.00
71145;BME280;58812;47.698;17.726;2023-02-12T05:11:09;101923.50;;;3.85;100.00
71145;BME280;58812;47.698;17.726;2023-02-12T05:13:36;101916.41;;;3.85;100.00
71145;BME280;58812;47.698;17.726;2023-02-12T05:16:05;101916.53;;;3.82;100.00
71145;BME280;58812;47.698;17.726;2023-02-12T05:18:31;101933.97;;;3.88;100.00
71145;BME280;58812;47.698;17.726;2023-02-12T05:20:58;101934.94;;;3.85;100.00
71145;BME280;58812;47.698;17.726;2023-02-12T05:23:26;101939.13;;;3.91;100.00
71145;BME280;58812;47.698;17.726;2023-02-12T05:25:52;101935.94;;;3.83;100.00
71145;BME280;58812;47.698;17.726;2023-02-12T05:28:17;101933.97;;;3.88;100.00
71145;BME280;58812;47.698;17.726;2023-02-12T05:30:43;101940.12;;;3.88;100.00
71145;BME280;58812;47.698;17.726;2023-02-12T05:33:08;101936.69;;;3.86;100.00
71145;BME280;58812;47.698;17.726;2023-02-12T05:35:34;101938.41;;;3.87;100.00
71145;BME280;58812;47.698;17.726;2023-02-12T05:38:00;101939.13;;;3.91;100.00
71145;BME280;58812;47.698;17.726;2023-02-12T05:40:25;101943.81;;;3.84;100.00
71145;BME280;58812;47.698;17.726;2023-02-12T05:42:50;101942.34;;;3.77;100.00
71145;BME280;58812;47.698;17.726;2023-02-12T05:45:16;101936.94;;;3.80;100.00
71145;BME280;58812;47.698;17.726;2023-02-12T05:47:41;101941.31;;;3.81;100.00
71145;BME280;58812;47.698;17.726;2023-02-12T05:50:07;101960.22;;;3.72;100.00
71145;BME280;58812;47.698;17.726;2023-02-12T05:52:33;101947.66;;;3.77;100.00
71145;BME280;58812;47.698;17.726;2023-02-12T05:54:58;101961.81;;;3.76;100.00
71145;BME280;58812;47.698;17.726;2023-02-12T05:57:24;101957.69;;;3.69;100.00
71145;BME280;58812;47.698;17.726;2023-02-12T05:59:49;101951.66;;;3.65;100.00
71145;BME280;58812;47.698;17.726;2023-02-12T06:02:15;101958.97;;;3.59;100.00
71145;BME280;58812;47.698;17.726;2023-02-12T06:04:40;101962.31;;;3.64;100.00
71145;BME280;58812;47.698;17.726;2023-02-12T06:07:05;101964.44;;;3.54;100.00
71145;BME280;58812;47.698;17.726;2023-02-12T06:09:32;101963.75;;;3.49;100.00
71145;BME280;58812;47.698;17.726;2023-02-12T06:11:59;101964.69;;;3.48;100.00
71145;BME280;58812;47.698;17.726;2023-02-12T06:14:24;101979.59;;;3.51;100.00
71145;BME280;58812;47.698;17.726;2023-02-12T06:16:50;101967.16;;;3.53;100.00
71145;BME280;58812;47.698;17.726;2023-02-12T06:19:17;101966.22;;;3.54;100.00
71145;BME280;58812;47.698;17.726;2023-02-12T06:21:43;101954.03;;;3.49;100.00
71145;BME280;58812;47.698;17.726;2023-02-12T06:24:11;101964.34;;;3.57;100.00
71145;BME280;58812;47.698;17.726;2023-02-12T06:26:36;101958.19;;;3.57;100.00
71145;BME280;58812;47.698;17.726;2023-02-12T06:29:02;101974.09;;;3.55;100.00
71145;BME280;58812;47.698;17.726;2023-02-12T06:31:30;101985.81;;;3.49;100.00
71145;BME280;58812;47.698;17.726;2023-02-12T06:33:59;101985.47;;;3.59;100.00
71145;BME280;58812;47.698;17.726;2023-02-12T06:36:24;101987.88;;;3.65;100.00
71145;BME280;58812;47.698;17.726;2023-02-12T06:38:50;101986.22;;;3.62;100.00
71145;BME280;58812;47.698;17.726;2023-02-12T06:41:16;101992.47;;;3.60;100.00
71145;BME280;58812;47.698;17.726;2023-02-12T06:43:41;101995.25;;;3.57;100.00
71145;BME280;58812;47.698;17.726;2023-02-12T06:46:07;101987.06;;;3.63;100.00
71145;BME280;58812;47.698;17.726;2023-02-12T06:48:33;101995.13;;;3.60;100.00
71145;BME280;58812;47.698;17.726;2023-02-12T06:51:07;101990.66;;;3.62;100.00
71145;BME280;58812;47.698;17.726;2023-02-12T06:53:33;101992.16;;;3.67;100.00
71145;BME280;58812;47.698;17.726;2023-02-12T06:56:04;102000.88;;;3.71;100.00
71145;BME280;58812;47.698;17.726;2023-02-12T06:58:30;102008.03;;;3.69;100.00
71145;BME280;58812;47.698;17.726;2023-02-12T07:00:56;102003.41;;;3.74;100.00
71145;BME280;58812;47.698;17.726;2023-02-12T07:03:21;102008.16;;;3.88;100.00
71145;BME280;58812;47.698;17.726;2023-02-12T07:05:47;102008.25;;;3.85;100.00
71145;BME280;58812;47.698;17.726;2023-02-12T07:08:13;102011.34;;;3.96;100.00
71145;BME280;58812;47.698;17.726;2023-02-12T07:10:39;102010.25;;;4.01;100.00
71145;BME280;58812;47.698;17.726;2023-02-12T07:13:04;102016.16;;;4.08;100.00
71145;BME280;58812;47.698;17.726;2023-02-12T07:15:30;102021.34;;;4.11;100.00
71145;BME280;58812;47.698;17.726;2023-02-12T07:17:55;102004.19;;;4.20;100.00
71145;BME280;58812;47.698;17.726;2023-02-12T07:20:21;102007.34;;;4.29;100.00
71145;BME280;58812;47.698;17.726;2023-02-12T07:22:46;102010.78;;;4.32;100.00
71145;BME280;58812;47.698;17.726;2023-02-12T07:25:12;102013.16;;;4.38;100.00
71145;BME280;58812;47.698;17.726;2023-02-12T07:27:37;102018.28;;;4.42;100.00
71145;BME280;58812;47.698;17.726;2023-02-12T07:30:04;102029.56;;;4.47;100.00
71145;BME280;58812;47.698;17.726;2023-02-12T07:32:31;102032.50;;;4.62;100.00
71145;BME280;58812;47.698;17.726;2023-02-12T07:34:57;102042.72;;;4.71;100.00
71145;BME280;58812;47.698;17.726;2023-02-12T07:37:23;102043.69;;;4.68;100.00
71145;BME280;58812;47.698;17.726;2023-02-12T07:39:48;102055.53;;;4.81;100.00
71145;BME280;58812;47.698;17.726;2023-02-12T07:42:14;102047.50;;;4.83;100.00
71145;BME280;58812;47.698;17.726;2023-02-12T07:44:39;102053.22;;;4.94;99.92
71145;BME280;58812;47.698;17.726;2023-02-12T07:47:05;102052.16;;;4.98;99.70
71145;BME280;58812;47.698;17.726;2023-02-12T07:49:30;102050.50;;;4.96;99.64
71145;BME280;58812;47.698;17.726;2023-02-12T07:51:56;102059.84;;;5.04;99.18
71145;BME280;58812;47.698;17.726;2023-02-12T07:54:22;102058.78;;;5.08;99.10
71145;BME280;58812;47.698;17.726;2023-02-12T07:56:47;102068.25;;;5.14;98.63
71145;BME280;58812;47.698;17.726;2023-02-12T07:59:15;102070.84;;;5.16;98.57
71145;BME280;58812;47.698;17.726;2023-02-12T08:01:45;102067.66;;;5.28;97.39
71145;BME280;58812;47.698;17.726;2023-02-12T08:04:13;102065.91;;;5.27;97.71
71145;BME280;58812;47.698;17.726;2023-02-12T08:06:50;102073.56;;;5.34;97.11
71145;BME280;58812;47.698;17.726;2023-02-12T08:09:21;102069.91;;;5.37;96.47
71145;BME280;58812;47.698;17.726;2023-02-12T08:11:47;102083.06;;;5.40;96.24
71145;BME280;58812;47.698;17.726;2023-02-12T08:14:18;102082.25;;;5.38;96.35
71145;BME280;58812;47.698;17.726;2023-02-12T08:16:45;102088.13;;;5.45;95.97
71145;BME280;58812;47.698;17.726;2023-02-12T08:19:11;102080.25;;;5.43;96.01
71145;BME280;58812;47.698;17.726;2023-02-12T08:21:37;102085.16;;;5.52;95.40
71145;BME280;58812;47.698;17.726;2023-02-12T08:24:02;102091.37;;;5.51;95.52
71145;BME280;58812;47.698;17.726;2023-02-12T08:26:30;102081.34;;;5.58;95.17
71145;BME280;58812;47.698;17.726;2023-02-12T08:29:01;102097.66;;;5.69;94.35
71145;BME280;58812;47.698;17.726;2023-02-12T08:31:32;102094.78;;;5.74;94.13
71145;BME280;58812;47.698;17.726;2023-02-12T08:33:59;102095.44;;;5.79;93.91
71145;BME280;58812;47.698;17.726;2023-02-12T08:36:27;102094.50;;;5.80;93.76
71145;BME280;58812;47.698;17.726;2023-02-12T08:38:56;102102.75;;;5.94;92.88
71145;BME280;58812;47.698;17.726;2023-02-12T08:41:24;102101.06;;;5.92;92.77
71145;BME280;58812;47.698;17.726;2023-02-12T08:43:52;102112.44;;;5.95;92.56
71145;BME280;58812;47.698;17.726;2023-02-12T08:46:20;102109.41;;;6.03;92.30
71145;BME280;58812;47.698;17.726;2023-02-12T08:48:47;102114.22;;;6.13;92.19
71145;BME280;58812;47.698;17.726;2023-02-12T08:51:15;102109.84;;;6.12;91.21
71145;BME280;58812;47.698;17.726;2023-02-12T08:53:42;102117.53;;;6.19;91.44
71145;BME280;58812;47.698;17.726;2023-02-12T08:56:08;102119.25;;;6.20;90.89
71145;BME280;58812;47.698;17.726;2023-02-12T08:58:35;102131.03;;;6.33;90.31
71145;BME280;58812;47.698;17.726;2023-02-12T09:01:02;102133.34;;;6.40;89.92
71145;BME280;58812;47.698;17.726;2023-02-12T09:03:28;102130.66;;;6.77;88.65
71145;BME280;58812;47.698;17.726;2023-02-12T09:05:53;102131.87;;;7.06;86.75
71145;BME280;58812;47.698;17.726;2023-02-12T09:08:20;102133.50;;;7.26;84.94
71145;BME280;58812;47.698;17.726;2023-02-12T09:10:45;102141.16;;;7.49;84.13
71145;BME280;58812;47.698;17.726;2023-02-12T09:13:12;102119.81;;;7.66;82.82
71145;BME280;58812;47.698;17.726;2023-02-12T09:15:43;102139.44;;;8.92;88.33
71145;BME280;58812;47.698;17.726;2023-02-12T09:18:10;102139.16;;;8.66;80.21
71145;BME280;58812;47.698;17.726;2023-02-12T09:20:38;102138.56;;;8.61;78.07
71145;BME280;58812;47.698;17.726;2023-02-12T09:23:04;102129.88;;;8.88;76.69
71145;BME280;58812;47.698;17.726;2023-02-12T09:25:30;102142.59;;;9.28;75.48
71145;BME280;58812;47.698;17.726;2023-02-12T09:27:59;102151.09;;;9.79;76.35
71145;BME280;58812;47.698;17.726;2023-02-12T09:30:24;102158.16;;;9.80;73.46
71145;BME280;58812;47.698;17.726;2023-02-12T09:32:50;102153.72;;;10.22;72.95
71145;BME280;58812;47.698;17.726;2023-02-12T09:35:15;102156.31;;;10.65;71.04
71145;BME280;58812;47.698;17.726;2023-02-12T09:37:42;102158.66;;;10.42;68.20
71145;BME280;58812;47.698;17.726;2023-02-12T09:40:17;102161.22;;;10.85;67.46
71145;BME280;58812;47.698;17.726;2023-02-12T09:43:07;102168.91;;;10.22;67.58
71145;BME280;58812;47.698;17.726;2023-02-12T09:45:42;102181.84;;;10.29;66.86
71145;BME280;58812;47.698;17.726;2023-02-12T09:48:31;102173.97;;;10.40;67.50
71145;BME280;58812;47.698;17.726;2023-02-12T09:51:04;102180.25;;;10.68;65.34
71145;BME280;58812;47.698;17.726;2023-02-12T09:53:35;102191.19;;;10.36;66.23
71145;BME280;58812;47.698;17.726;2023-02-12T09:56:02;102172.37;;;10.65;67.75
71145;BME280;58812;47.698;17.726;2023-02-12T09:58:34;102181.69;;;10.86;64.92
71145;BME280;58812;47.698;17.726;2023-02-12T10:01:20;102168.81;;;10.37;64.71
71145;BME280;58812;47.698;17.726;2023-02-12T10:03:50;102178.19;;;10.45;63.86
71145;BME280;58812;47.698;17.726;2023-02-12T10:06:20;102179.53;;;9.80;66.05
71145;BME280;58812;47.698;17.726;2023-02-12T10:11:50;102186.53;;;10.67;63.39
71145;BME280;58812;47.698;17.726;2023-02-12T10:17:46;102178.91;;;11.15;61.39
71145;BME280;58812;47.698;17.726;2023-02-12T10:25:55;102188.84;;;10.59;61.59
71145;BME280;58812;47.698;17.726;2023-02-12T10:28:34;102187.47;;;10.80;61.17
71145;BME280;58812;47.698;17.726;2023-02-12T10:31:11;102197.28;;;11.34;59.26
71145;BME280;58812;47.698;17.726;2023-02-12T10:33:44;102188.19;;;11.62;58.15
71145;BME280;58812;47.698;17.726;2023-02-12T10:36:42;102196.22;;;11.62;57.08
71145;BME280;58812;47.698;17.726;2023-02-12T10:41:57;102196.34;;;11.08;58.66
71145;BME280;58812;47.698;17.726;2023-02-12T10:44:26;102201.81;;;11.46;57.52
71145;BME280;58812;47.698;17.726;2023-02-12T10:46:52;102198.81;;;11.11;57.82
71145;BME280;58812;47.698;17.726;2023-02-12T10:49:19;102198.59;;;11.54;57.82
71145;BME280;58812;47.698;17.726;2023-02-12T10:51:56;102201.34;;;11.27;58.41
71145;BME280;58812;47.698;17.726;2023-02-12T10:54:42;102189.56;;;12.31;55.98
71145;BME280;58812;47.698;17.726;2023-02-12T10:59:49;102179.72;;;10.76;58.38
71145;BME280;58812;47.698;17.726;2023-02-12T11:02:33;102179.78;;;10.88;58.52
71145;BME280;58812;47.698;17.726;2023-02-12T11:05:22;102182.50;;;11.54;57.87
71145;BME280;58812;47.698;17.726;2023-02-12T11:07:49;102170.31;;;11.88;56.85
71145;BME280;58812;47.698;17.726;2023-02-12T11:10:24;102174.91;;;11.86;55.86
71145;BME280;58812;47.698;17.726;2023-02-12T11:12:52;102183.94;;;10.38;60.45
71145;BME280;58812;47.698;17.726;2023-02-12T11:15:23;102182.00;;;9.69;63.84
71145;BME280;58812;47.698;17.726;2023-02-12T11:20:48;102189.59;;;9.32;66.35
71145;BME280;58812;47.698;17.726;2023-02-12T11:23:42;102194.81;;;9.20;66.75
71145;BME280;58812;47.698;17.726;2023-02-12T11:31:30;102191.28;;;10.06;62.81
71145;BME280;58812;47.698;17.726;2023-02-12T11:34:14;102193.50;;;10.28;62.86
71145;BME280;58812;47.698;17.726;2023-02-12T11:36:51;102187.69;;;11.17;59.58
71145;BME280;58812;47.698;17.726;2023-02-12T11:39:22;102178.00;;;11.80;57.36
71145;BME280;58812;47.698;17.726;2023-02-12T11:41:59;102189.25;;;11.72;55.46
71145;BME280;58812;47.698;17.726;2023-02-12T11:44:27;102183.59;;;12.02;54.64
71145;BME280;58812;47.698;17.726;2023-02-12T11:47:05;102174.25;;;12.57;53.78
71145;BME280;58812;47.698;17.726;2023-02-12T11:49:47;102172.97;;;12.50;52.87
71145;BME280;58812;47.698;17.726;2023-02-12T11:52:22;102189.56;;;12.31;53.43
71145;BME280;58812;47.698;17.726;2023-02-12T11:54:50;102179.94;;;11.77;55.02
71145;BME280;58812;47.698;17.726;2023-02-12T11:57:38;102176.75;;;11.20;56.37
71145;BME280;58812;47.698;17.726;2023-02-12T12:05:20;102162.69;;;11.04;54.30
71145;BME280;58812;47.698;17.726;2023-02-12T12:07:55;102165.63;;;10.86;54.90
71145;BME280;58812;47.698;17.726;2023-02-12T12:10:40;102159.66;;;11.08;54.56
71145;BME280;58812;47.698;17.726;2023-02-12T12:13:15;102144.63;;;10.66;55.99
71145;BME280;58812;47.698;17.726;2023-02-12T12:15:51;102158.03;;;10.10;59.01
71145;BME280;58812;47.698;17.726;2023-02-12T12:18:46;102148.78;;;9.87;61.14
71145;BME280;58812;47.698;17.726;2023-02-12T12:21:35;102151.03;;;10.90;58.04
71145;BME280;58812;47.698;17.726;2023-02-12T12:27:00;102153.94;;;11.27;54.62
71145;BME280;58812;47.698;17.726;2023-02-12T12:32:08;102170.62;;;11.18;54.81
71145;BME280;58812;47.698;17.726;2023-02-12T12:34:36;102156.22;;;10.93;55.02
71145;BME280;58812;47.698;17.726;2023-02-12T12:43:07;102155.97;;;9.43;58.57
71145;BME280;58812;47.698;17.726;2023-02-12T12:54:35;102161.44;;;8.81;60.92
71145;BME280;58812;47.698;17.726;2023-02-12T12:57:48;102153.62;;;8.62;61.49
71145;BME280;58812;47.698;17.726;2023-02-12T13:09:23;102152.75;;;9.38;59.86
71145;BME280;58812;47.698;17.726;2023-02-12T13:17:38;102158.91;;;9.24;59.29
71145;BME280;58812;47.698;17.726;2023-02-12T13:20:30;102156.66;;;9.02;59.94
71145;BME280;58812;47.698;17.726;2023-02-12T13:23:10;102160.00;;;9.05;60.34
71145;BME280;58812;47.698;17.726;2023-02-12T13:28:26;102151.87;;;9.07;59.29
71145;BME280;58812;47.698;17.726;2023-02-12T13:30:55;102159.16;;;8.89;60.00
71145;BME280;58812;47.698;17.726;2023-02-12T13:33:27;102159.75;;;9.24;58.97
71145;BME280;58812;47.698;17.726;2023-02-12T13:35:59;102154.88;;;9.17;59.03
71145;BME280;58812;47.698;17.726;2023-02-12T13:39:00;102157.59;;;9.01;59.83
71145;BME280;58812;47.698;17.726;2023-02-12T13:41:31;102159.88;;;8.93;60.12
71145;BME280;58812;47.698;17.726;2023-02-12T13:49:46;102165.25;;;9.37;58.15
71145;BME280;58812;47.698;17.726;2023-02-12T13:52:49;102160.41;;;9.72;57.22
71145;BME280;58812;47.698;17.726;2023-02-12T13:55:31;102169.22;;;10.03;55.53
71145;BME280;58812;47.698;17.726;2023-02-12T14:01:41;102162.91;;;9.89;54.28
71145;BME280;58812;47.698;17.726;2023-02-12T14:03:47;102158.59;;;9.44;55.21
71145;BME280;58812;47.698;17.726;2023-02-12T14:06:20;102163.44;;;9.38;55.09
71145;BME280;58812;47.698;17.726;2023-02-12T14:08:50;102160.78;;;9.66;54.48
71145;BME280;58812;47.698;17.726;2023-02-12T14:11:21;102180.94;;;9.57;54.91
71145;BME280;58812;47.698;17.726;2023-02-12T14:13:55;102175.38;;;9.46;55.31
71145;BME280;58812;47.698;17.726;2023-02-12T14:22:01;102169.84;;;9.05;56.84
71145;BME280;58812;47.698;17.726;2023-02-12T14:37:52;102170.50;;;8.78;56.30
71145;BME280;58812;47.698;17.726;2023-02-12T14:43:23;102174.53;;;8.70;57.30
71145;BME280;58812;47.698;17.726;2023-02-12T14:45:51;102191.88;;;8.78;57.48
71145;BME280;58812;47.698;17.726;2023-02-12T14:48:58;102182.75;;;8.67;57.69
71145;BME280;58812;47.698;17.726;2023-02-12T14:51:39;102179.56;;;8.60;58.11
71145;BME280;58812;47.698;17.726;2023-02-12T14:54:19;102187.13;;;8.52;58.84
71145;BME280;58812;47.698;17.726;2023-02-12T14:56:48;102185.91;;;8.42;59.22
71145;BME280;58812;47.698;17.726;2023-02-12T14:59:17;102187.16;;;8.35;59.57
71145;BME280;58812;47.698;17.726;2023-02-12T15:01:45;102189.41;;;8.26;60.20
71145;BME280;58812;47.698;17.726;2023-02-12T15:04:23;102187.31;;;8.16;60.88
71145;BME280;58812;47.698;17.726;2023-02-12T15:07:13;102187.03;;;8.04;61.39
71145;BME280;58812;47.698;17.726;2023-02-12T15:09:51;102183.94;;;7.96;62.05
71145;BME280;58812;47.698;17.726;2023-02-12T15:12:36;102185.13;;;7.91;62.61
71145;BME280;58812;47.698;17.726;2023-02-12T15:15:30;102195.38;;;7.83;63.23
71145;BME280;58812;47.698;17.726;2023-02-12T15:18:23;102186.13;;;7.72;63.73
71145;BME280;58812;47.698;17.726;2023-02-12T15:21:02;102197.09;;;7.66;63.61